Time;durP1;ratioP1;P1;durP2;ratioP2;P2;SDS_P1;SDS_P2;PMS_P1;PMS_P2;Temp;Humidity;BMP_temperature;BMP_pressure;BME280_temperature;BME280_humidity;BME280_pressure;Samples;Min_cycle;Max_cycle;Signal;HPM_P1;HPM_P2
2023/04/14 00:02:39;;;;;;;4.80;1.70;;;;;;;9.77;nan;97761.63;5050151;28;20103;-80
2023/04/14 00:05:28;;;;;;;3.70;2.00;;;;;;;10.03;nan;97758.88;5039602;28;20071;-80
2023/04/14 00:08:12;;;;;;;5.75;2.25;;;;;;;9.80;nan;97752.53;5041567;28;20043;-79
2023/04/14 00:10:56;;;;;;;6.38;1.98;;;;;;;9.98;nan;97762.16;5048292;28;20053;-78
2023/04/14 00:13:40;;;;;;;5.53;2.22;;;;;;;10.01;nan;97766.97;5046412;28;20044;-81
2023/04/14 00:16:24;;;;;;;7.90;2.33;;;;;;;9.82;nan;97753.91;5045049;28;20056;-79
2023/04/14 00:19:08;;;;;;;6.25;1.85;;;;;;;9.73;nan;97760.47;5048426;28;20072;-80
2023/04/14 00:21:52;;;;;;;9.73;2.50;;;;;;;9.84;nan;97759.75;5051356;28;20040;-79
2023/04/14 00:24:41;;;;;;;4.72;2.30;;;;;;;9.95;nan;97755.56;5046506;28;20420;-79
2023/04/14 00:27:26;;;;;;;4.45;2.00;;;;;;;9.91;nan;97751.78;5045895;28;20044;-79
2023/04/14 00:30:10;;;;;;;5.50;1.95;;;;;;;9.97;nan;97753.53;5044855;28;20040;-79
2023/04/14 00:32:55;;;;;;;7.47;2.10;;;;;;;9.92;nan;97752.59;5044141;28;20080;-78
2023/04/14 00:35:39;;;;;;;6.57;1.90;;;;;;;10.08;nan;97759.00;5050560;28;20051;-79
2023/04/14 00:38:24;;;;;;;7.22;2.63;;;;;;;9.86;nan;97757.69;5055531;28;20098;-80
2023/04/14 00:41:08;;;;;;;4.65;1.92;;;;;;;9.84;nan;97754.50;5042834;28;20087;-80
2023/04/14 00:43:53;;;;;;;7.07;2.10;;;;;;;9.75;nan;97758.44;5054682;28;20055;-79
2023/04/14 00:46:39;;;;;;;5.43;1.90;;;;;;;9.67;nan;97763.97;5051598;28;20043;-80
2023/04/14 00:49:24;;;;;;;3.92;1.77;;;;;;;9.65;nan;97768.66;5054196;28;20051;-79
2023/04/14 00:52:08;;;;;;;7.07;2.38;;;;;;;9.84;nan;97758.94;5054174;28;20106;-79
2023/04/14 00:54:52;;;;;;;5.28;1.77;;;;;;;9.87;nan;97768.97;5053963;28;20047;-79
2023/04/14 00:57:38;;;;;;;7.22;1.90;;;;;;;9.73;nan;97760.47;5049670;28;20048;-79
2023/04/14 01:00:22;;;;;;;7.25;1.80;;;;;;;9.61;nan;97775.31;5032829;28;20426;-79
2023/04/14 01:03:06;;;;;;;8.30;1.90;;;;;;;9.50;nan;97769.00;5040726;28;20040;-79
2023/04/14 01:05:51;;;;;;;10.30;2.58;;;;;;;9.71;nan;97767.75;5037832;28;20457;-79
2023/04/14 01:08:37;;;;;;;9.43;2.25;;;;;;;9.82;nan;97769.63;5037803;28;20040;-79
2023/04/14 01:11:46;;;;;;;7.38;2.00;;;;;;;9.75;nan;97765.50;5040966;28;20091;-78
2023/04/14 01:14:50;;;;;;;5.68;2.30;;;;;;;9.72;nan;97766.75;5043026;28;20048;-77
2023/04/14 01:17:43;;;;;;;5.60;2.20;;;;;;;9.59;nan;97759.84;5054382;28;20100;-79
2023/04/14 01:20:40;;;;;;;9.93;2.07;;;;;;;9.64;nan;97764.44;5048294;28;20055;-79
2023/04/14 01:23:39;;;;;;;7.18;1.98;;;;;;;9.69;nan;97765.34;5047678;28;20278;-79
2023/04/14 01:26:30;;;;;;;7.50;1.58;;;;;;;9.53;nan;97752.84;5043693;28;20051;-78
2023/04/14 01:29:42;;;;;;;8.40;1.60;;;;;;;9.77;nan;97760.84;5040978;28;20056;-79
2023/04/14 01:32:30;;;;;;;10.07;2.08;;;;;;;9.66;nan;97762.38;5053656;28;20047;-79
2023/04/14 01:35:19;;;;;;;9.23;1.95;;;;;;;9.94;nan;97761.03;5051017;28;20035;-78
2023/04/14 01:38:08;;;;;;;9.10;2.65;;;;;;;9.85;nan;97748.22;5045849;28;20112;-79
2023/04/14 01:40:56;;;;;;;6.90;2.10;;;;;;;10.05;nan;97760.28;5039405;28;20136;-79
2023/04/14 01:43:44;;;;;;;7.57;1.88;;;;;;;9.99;nan;97756.72;5057572;28;20553;-79
2023/04/14 01:46:29;;;;;;;8.35;1.90;;;;;;;9.84;nan;97751.88;5038537;28;20036;-79
2023/04/14 01:49:17;;;;;;;13.82;2.17;;;;;;;9.77;nan;97760.84;5019875;28;20044;-79
2023/04/14 01:52:05;;;;;;;7.75;1.88;;;;;;;9.63;nan;97770.66;5038743;28;20118;-79
2023/04/14 01:54:51;;;;;;;11.00;2.42;;;;;;;9.45;nan;97768.84;5041663;28;20052;-79
2023/04/14 01:57:37;;;;;;;5.97;2.10;;;;;;;9.25;nan;97760.22;5037225;28;20040;-79
2023/04/14 02:00:23;;;;;;;5.70;1.80;;;;;;;9.09;nan;97771.25;5044973;28;20094;-78
2023/04/14 02:03:08;;;;;;;7.47;1.88;;;;;;;8.85;nan;97761.38;5039235;28;20048;-78
2023/04/14 02:05:54;;;;;;;8.95;2.00;;;;;;;8.92;nan;97776.22;5040842;28;20040;-78
2023/04/14 02:08:40;;;;;;;5.22;1.90;;;;;;;8.78;nan;97775.53;5039208;28;20474;-79
2023/04/14 02:11:26;;;;;;;7.57;2.00;;;;;;;8.30;nan;97769.81;5048639;28;20098;-79
2023/04/14 02:14:12;;;;;;;7.90;1.88;;;;;;;8.25;nan;97767.81;5038531;28;20043;-78
2023/04/14 02:16:58;;;;;;;6.05;1.90;;;;;;;8.32;nan;97772.19;5038349;28;20459;-79
2023/04/14 02:19:43;;;;;;;6.95;2.30;;;;;;;8.37;nan;97778.41;5037051;28;20041;-79
2023/04/14 02:22:28;;;;;;;7.38;2.13;;;;;;;8.43;nan;97772.31;5045645;28;20031;-79
2023/04/14 02:25:12;;;;;;;9.10;2.00;;;;;;;8.49;nan;97777.72;5044836;28;20529;-79
2023/04/14 02:28:04;;;;;;;6.68;2.10;;;;;;;8.29;nan;97773.44;5051907;28;20399;-79
2023/04/14 02:30:51;;;;;;;4.72;2.00;;;;;;;8.39;nan;97776.38;5046963;28;20043;-79
2023/04/14 02:33:38;;;;;;;7.57;2.08;;;;;;;8.49;nan;97772.50;5047894;28;20103;-79
2023/04/14 02:36:52;;;;;;;8.38;2.80;;;;;;;8.46;nan;97763.25;5041093;28;20570;-79
2023/04/14 02:39:41;;;;;;;9.55;2.10;;;;;;;8.49;nan;97762.03;5016152;28;20100;-79
2023/04/14 02:42:27;;;;;;;5.28;1.80;;;;;;;8.44;nan;97760.84;5027436;28;20052;-79
2023/04/14 02:45:20;;;;;;;11.48;2.28;;;;;;;8.45;nan;97759.03;5033523;28;20467;-79
2023/04/14 02:48:10;;;;;;;9.00;2.00;;;;;;;8.36;nan;97765.56;5038501;28;20398;-80
2023/04/14 02:50:56;;;;;;;8.32;2.17;;;;;;;8.36;nan;97758.50;5040938;28;20032;-79
2023/04/14 02:53:40;;;;;;;8.02;2.60;;;;;;;8.36;nan;97761.13;5012731;28;20044;-79
2023/04/14 02:56:25;;;;;;;9.50;2.00;;;;;;;8.23;nan;97758.56;5031140;28;20052;-79
2023/04/14 02:59:11;;;;;;;12.40;2.08;;;;;;;8.14;nan;97761.44;5037527;28;20152;-79
2023/04/14 03:01:58;;;;;;;7.53;2.22;;;;;;;8.09;nan;97753.44;5049184;28;20040;-79
2023/04/14 03:04:43;;;;;;;11.65;2.20;;;;;;;8.19;nan;97768.66;5045259;28;20403;-79
2023/04/14 03:07:28;;;;;;;9.93;2.30;;;;;;;8.15;nan;97762.25;5039778;28;20450;-79
2023/04/14 03:10:13;;;;;;;9.32;2.30;;;;;;;8.15;nan;97763.06;5039226;28;20040;-79
2023/04/14 03:12:57;;;;;;;4.63;2.15;;;;;;;8.36;nan;97753.28;5050387;28;20066;-79
2023/04/14 03:15:43;;;;;;;11.65;2.35;;;;;;;8.24;nan;97757.56;5047312;28;20119;-79
2023/04/14 03:18:30;;;;;;;11.05;2.30;;;;;;;8.07;nan;97763.31;5035956;28;20513;-79
2023/04/14 03:21:17;;;;;;;8.57;3.42;;;;;;;8.00;nan;97754.69;5043180;28;20040;-79
2023/04/14 03:24:02;;;;;;;4.88;1.83;;;;;;;7.88;nan;97756.38;5039728;28;20514;-79
2023/04/14 03:26:48;;;;;;;7.85;2.00;;;;;;;7.73;nan;97754.84;5022183;28;20052;-79
2023/04/14 03:29:36;;;;;;;7.78;2.00;;;;;;;7.68;nan;97755.44;5051939;28;20399;-79
2023/04/14 03:32:27;;;;;;;8.20;2.58;;;;;;;7.66;nan;97748.81;5035624;28;20044;-79
2023/04/14 03:35:14;;;;;;;6.78;2.30;;;;;;;7.52;nan;97748.88;5035603;28;20103;-79
2023/04/14 03:38:01;;;;;;;6.13;2.20;;;;;;;7.43;nan;97756.13;5045594;28;20391;-79
2023/04/14 03:40:46;;;;;;;6.55;2.40;;;;;;;7.45;nan;97752.53;5035253;28;20045;-79
2023/04/14 03:43:32;;;;;;;5.28;2.33;;;;;;;7.50;nan;97756.13;5035411;28;20099;-79
2023/04/14 03:46:16;;;;;;;5.38;2.30;;;;;;;7.46;nan;97743.69;5035830;28;20103;-80
2023/04/14 03:49:05;;;;;;;6.40;2.97;;;;;;;7.60;nan;97747.84;5035941;28;20522;-79
2023/04/14 03:51:53;;;;;;;4.50;2.25;;;;;;;7.46;nan;97738.47;5047356;28;20047;-80
2023/04/14 03:54:40;;;;;;;5.88;2.67;;;;;;;7.53;nan;97755.72;5057066;28;20068;-80
2023/04/14 03:57:28;;;;;;;5.35;2.47;;;;;;;7.56;nan;97757.09;5044317;28;20060;-80
2023/04/14 04:00:14;;;;;;;7.85;2.33;;;;;;;7.53;nan;97753.09;5036671;28;20039;-79
2023/04/14 04:03:00;;;;;;;9.75;2.60;;;;;;;7.62;nan;97752.84;5039716;28;20114;-80
2023/04/14 04:05:45;;;;;;;8.07;2.50;;;;;;;7.64;nan;97750.84;5054223;28;20501;-79
2023/04/14 04:08:30;;;;;;;8.95;2.50;;;;;;;7.66;nan;97748.81;5054079;28;20394;-79
2023/04/14 04:11:17;;;;;;;3.20;2.05;;;;;;;7.67;nan;97745.22;5041876;28;20044;-79
2023/04/14 04:14:03;;;;;;;7.88;2.50;;;;;;;7.60;nan;97747.03;5049178;28;20047;-80
2023/04/14 04:16:49;;;;;;;6.03;2.40;;;;;;;7.45;nan;97758.53;5053667;28;20060;-80
2023/04/14 04:19:36;;;;;;;8.43;2.90;;;;;;;7.57;nan;97759.50;5034680;28;20094;-80
2023/04/14 04:22:22;;;;;;;5.43;2.25;;;;;;;7.58;nan;97758.50;5048652;28;20143;-79
2023/04/14 04:25:11;;;;;;;8.20;3.17;;;;;;;7.49;nan;97754.53;5054591;28;20098;-79
2023/04/14 04:27:56;;;;;;;8.07;2.75;;;;;;;7.48;nan;97747.69;5026890;28;20043;-79
2023/04/14 04:30:42;;;;;;;5.65;2.72;;;;;;;7.50;nan;97747.47;5046544;28;20094;-79
2023/04/14 04:33:28;;;;;;;5.93;3.00;;;;;;;7.53;nan;97749.66;5033954;28;20075;-78
2023/04/14 04:36:13;;;;;;;9.10;2.70;;;;;;;7.38;nan;97755.97;5038234;28;20059;-79
2023/04/14 04:38:57;;;;;;;13.60;3.42;;;;;;;7.42;nan;97754.53;5039264;28;20044;-79
2023/04/14 04:41:41;;;;;;;8.73;3.20;;;;;;;7.45;nan;97753.31;5038441;28;20451;-79
2023/04/14 04:44:25;;;;;;;9.93;2.90;;;;;;;7.47;nan;97751.31;5033778;28;20048;-79
2023/04/14 04:47:11;;;;;;;11.25;2.97;;;;;;;7.54;nan;97751.28;5034913;28;20080;-79
2023/04/14 04:49:55;;;;;;;4.80;2.95;;;;;;;7.49;nan;97753.72;5043539;28;20087;-79
2023/04/14 04:52:39;;;;;;;7.05;2.97;;;;;;;7.46;nan;97748.91;5055025;28;20051;-79
2023/04/14 04:55:23;;;;;;;12.32;3.08;;;;;;;7.34;nan;97751.34;5042737;28;20055;-79
2023/04/14 04:58:08;;;;;;;6.30;2.80;;;;;;;7.26;nan;97740.09;5038876;28;20194;-79
2023/04/14 05:00:53;;;;;;;7.15;3.38;;;;;;;7.28;nan;97737.31;5046790;28;20059;-79
2023/04/14 05:03:37;;;;;;;7.70;3.15;;;;;;;7.22;nan;97746.75;5015160;28;20052;-79
2023/04/14 05:06:21;;;;;;;7.47;3.10;;;;;;;7.08;nan;97743.38;5017425;28;20053;-79
2023/04/14 05:09:05;;;;;;;11.10;3.15;;;;;;;7.06;nan;97742.78;5043957;28;20510;-79
2023/04/14 05:11:50;;;;;;;12.63;3.72;;;;;;;7.10;nan;97743.19;5052805;28;20032;-79
2023/04/14 05:14:34;;;;;;;7.88;2.95;;;;;;;7.14;nan;97742.56;5054824;28;20063;-80
2023/04/14 05:17:18;;;;;;;5.88;3.17;;;;;;;7.16;nan;97747.56;5051797;28;20053;-78
2023/04/14 05:20:04;;;;;;;6.25;3.03;;;;;;;7.10;nan;97738.75;5033416;28;20411;-79
2023/04/14 05:22:48;;;;;;;7.97;3.65;;;;;;;7.15;nan;97735.53;5050462;28;20553;-79
2023/04/14 05:25:32;;;;;;;6.80;2.72;;;;;;;7.15;nan;97748.59;5044553;28;20517;-79
2023/04/14 05:28:16;;;;;;;6.45;3.30;;;;;;;7.05;nan;97743.78;5033375;28;20041;-79
2023/04/14 05:31:00;;;;;;;8.57;3.75;;;;;;;6.90;nan;97736.19;5034443;28;20506;-79
2023/04/14 05:33:44;;;;;;;11.50;3.78;;;;;;;6.92;nan;97734.19;5040002;28;20040;-79
2023/04/14 05:36:28;;;;;;;12.68;3.88;;;;;;;6.92;nan;97744.63;5053068;28;20071;-79
2023/04/14 05:39:12;;;;;;;9.13;3.33;;;;;;;6.96;nan;97743.19;5030192;28;20179;-79
2023/04/14 05:41:58;;;;;;;10.25;3.90;;;;;;;6.92;nan;97734.19;5035738;28;20052;-79
2023/04/14 05:44:42;;;;;;;9.18;3.53;;;;;;;7.04;nan;97734.34;5038209;28;20040;-79
2023/04/14 05:47:27;;;;;;;6.93;3.55;;;;;;;7.02;nan;97730.34;5042384;28;20406;-80
2023/04/14 05:50:11;;;;;;;8.20;4.20;;;;;;;7.03;nan;97734.53;5055785;28;20036;-79
2023/04/14 05:52:55;;;;;;;9.32;3.78;;;;;;;7.23;nan;97734.50;5053855;28;20033;-79
2023/04/14 05:55:40;;;;;;;11.48;4.40;;;;;;;7.33;nan;97731.47;5042391;28;20049;-78
2023/04/14 05:58:27;;;;;;;10.95;4.07;;;;;;;7.41;nan;97728.63;5040838;28;20415;-78
2023/04/14 06:01:11;;;;;;;14.88;4.20;;;;;;;7.50;nan;97722.19;5039404;28;20399;-78
2023/04/14 06:03:55;;;;;;;9.43;4.10;;;;;;;7.53;nan;97724.38;5040781;28;20044;-79
2023/04/14 06:06:39;;;;;;;11.57;4.47;;;;;;;7.62;nan;97726.75;5034296;28;20071;-79
2023/04/14 06:09:23;;;;;;;7.60;4.18;;;;;;;7.76;nan;97730.91;5043766;28;20052;-79
2023/04/14 06:12:07;;;;;;;11.20;4.20;;;;;;;7.82;nan;97735.28;5038591;28;20057;-78
2023/04/14 06:14:51;;;;;;;9.27;4.43;;;;;;;8.00;nan;97733.78;5038432;28;20121;-79
2023/04/14 06:17:35;;;;;;;13.88;4.40;;;;;;;8.23;nan;97737.66;5034394;28;20040;-79
2023/04/14 06:20:20;;;;;;;10.05;4.53;;;;;;;8.41;nan;97740.34;5039880;28;20237;-79
2023/04/14 06:23:05;;;;;;;10.38;4.38;;;;;;;8.53;nan;97734.47;5037953;28;20450;-79
2023/04/14 06:25:51;;;;;;;12.25;4.38;;;;;;;8.85;nan;97735.22;5042635;28;20043;-79
2023/04/14 06:28:35;;;;;;;10.57;4.32;;;;;;;9.12;nan;97734.94;5042757;28;20089;-79
2023/04/14 06:31:19;;;;;;;10.43;4.15;;;;;;;9.18;nan;97737.72;5035994;28;20559;-80
2023/04/14 06:34:03;;;;;;;10.15;4.35;;;;;;;9.46;nan;97745.06;5043381;28;20075;-79
2023/04/14 06:36:47;;;;;;;11.82;4.70;;;;;;;9.53;nan;97748.41;5046202;28;20098;-80
2023/04/14 06:39:31;;;;;;;10.35;4.55;;;;;;;9.70;nan;97737.34;5049742;28;20049;-79
2023/04/14 06:42:15;;;;;;;8.95;4.38;;;;;;;9.86;nan;97741.16;5038780;28;20083;-79
2023/04/14 06:44:59;;;;;;;11.10;4.10;;;;;;;9.89;nan;97742.53;5036303;28;20059;-79
2023/04/14 06:47:43;;;;;;;10.63;4.47;;;;;;;10.01;nan;97746.00;5031230;28;20232;-79
2023/04/14 06:50:27;;;;;;;8.50;3.35;;;;;;;9.99;nan;97743.63;5057137;28;20052;-79
2023/04/14 06:53:11;;;;;;;8.02;4.35;;;;;;;10.09;nan;97752.75;5047508;28;20115;-79
2023/04/14 06:55:58;;;;;;;12.90;4.40;;;;;;;10.26;nan;97748.47;5049578;28;20036;-80
2023/04/14 06:58:41;;;;;;;8.90;4.28;;;;;;;10.13;nan;97754.72;5054761;28;20098;-79
2023/04/14 07:01:25;;;;;;;9.45;4.47;;;;;;;10.49;nan;97761.91;5045037;28;20378;-80
2023/04/14 07:04:09;;;;;;;9.82;4.45;;;;;;;11.00;nan;97763.09;5046407;28;20044;-80
2023/04/14 07:06:58;;;;;;;12.57;4.97;;;;;;;11.22;nan;97759.06;5047100;28;20068;-80
2023/04/14 07:09:42;;;;;;;17.38;4.47;;;;;;;11.53;nan;97755.25;5043637;28;20064;-79
2023/04/14 07:12:26;;;;;;;5.90;3.75;;;;;;;11.71;nan;97753.50;5041885;28;20475;-79
2023/04/14 07:15:13;;;;;;;10.15;3.97;;;;;;;11.97;nan;97756.59;5045101;28;20529;-79
2023/04/14 07:17:57;;;;;;;12.57;3.85;;;;;;;11.93;nan;97753.66;5049382;28;20527;-78
2023/04/14 07:20:40;;;;;;;8.18;4.57;;;;;;;12.15;nan;97745.13;5038180;28;20182;-79
2023/04/14 07:23:25;;;;;;;14.48;6.60;;;;;;;11.84;nan;97755.03;5045092;28;20035;-78
2023/04/14 07:26:09;;;;;;;10.07;4.25;;;;;;;12.12;nan;97745.59;5038845;28;20055;-77
2023/04/14 07:28:54;;;;;;;6.72;3.58;;;;;;;12.02;nan;97746.22;5041720;28;20493;-78
2023/04/14 07:31:38;;;;;;;7.82;4.00;;;;;;;12.13;nan;97750.59;5041728;28;20091;-78
2023/04/14 07:34:22;;;;;;;10.35;3.78;;;;;;;12.38;nan;97748.66;5044110;28;20056;-78
2023/04/14 07:37:06;;;;;;;13.80;4.50;;;;;;;12.25;nan;97745.28;5040719;28;20426;-79
2023/04/14 07:39:50;;;;;;;11.02;3.97;;;;;;;12.07;nan;97750.75;5042906;28;20040;-80
2023/04/14 07:42:35;;;;;;;9.05;4.47;;;;;;;12.18;nan;97747.28;5047542;28;20107;-79
2023/04/14 07:45:19;;;;;;;13.07;4.38;;;;;;;12.39;nan;97751.06;5048473;28;20170;-78
2023/04/14 07:48:04;;;;;;;8.10;4.03;;;;;;;12.36;nan;97743.63;5041220;28;20048;-79
2023/04/14 07:50:51;;;;;;;9.77;4.45;;;;;;;12.46;nan;97750.09;5040587;28;20063;-79
2023/04/14 07:53:39;;;;;;;13.55;3.72;;;;;;;12.44;nan;97742.44;5044462;28;20502;-79
2023/04/14 07:56:23;;;;;;;11.20;3.83;;;;;;;12.70;nan;97751.53;5049871;28;20033;-79
2023/04/14 07:59:07;;;;;;;8.48;3.42;;;;;;;12.80;nan;97750.09;5043828;28;20047;-79
2023/04/14 08:01:51;;;;;;;12.60;3.88;;;;;;;12.57;nan;97757.09;5042683;28;20056;-79
2023/04/14 08:04:35;;;;;;;7.00;3.45;;;;;;;12.40;nan;97752.66;5045953;28;20071;-79
2023/04/14 08:07:19;;;;;;;5.65;3.05;;;;;;;12.68;nan;97750.19;5054063;28;20099;-80
2023/04/14 08:10:04;;;;;;;16.00;3.78;;;;;;;12.88;nan;97752.31;5047544;28;20056;-79
2023/04/14 08:12:48;;;;;;;4.10;2.72;;;;;;;12.96;nan;97749.28;5047579;28;20040;-79
2023/04/14 08:15:32;;;;;;;8.45;2.60;;;;;;;12.94;nan;97753.19;5057056;28;20055;-79
2023/04/14 08:18:17;;;;;;;4.97;2.67;;;;;;;13.14;nan;97752.69;5053105;28;20048;-79
2023/04/14 08:21:01;;;;;;;6.63;3.58;;;;;;;13.45;nan;97753.13;5035505;28;20048;-80
2023/04/14 08:23:45;;;;;;;7.20;2.60;;;;;;;13.67;nan;97757.59;5043406;28;20090;-81
2023/04/14 08:26:29;;;;;;;9.93;2.70;;;;;;;13.65;nan;97754.41;5041354;28;20402;-80
2023/04/14 08:29:13;;;;;;;7.47;2.58;;;;;;;13.39;nan;97761.97;5029598;28;20060;-82
2023/04/14 08:31:57;;;;;;;6.22;2.47;;;;;;;13.35;nan;97761.66;5039636;28;20144;-82
2023/04/14 08:34:41;;;;;;;5.47;2.50;;;;;;;13.85;nan;97762.53;5041170;28;20140;-81
2023/04/14 08:37:25;;;;;;;10.27;3.03;;;;;;;14.13;nan;97768.63;5043067;28;20505;-82
2023/04/14 08:40:10;;;;;;;6.35;2.42;;;;;;;14.46;nan;97767.84;5039199;28;20048;-82
2023/04/14 08:42:55;;;;;;;8.13;2.83;;;;;;;14.78;nan;97770.50;5039588;28;20118;-81
2023/04/14 08:45:40;;;;;;;6.47;2.78;;;;;;;15.08;nan;97773.63;5043304;28;20036;-81
2023/04/14 08:48:29;;;;;;;9.35;3.30;;;;;;;15.35;nan;97780.66;5032835;28;20128;-82
2023/04/14 08:51:34;;;;;;;7.30;3.08;;;;;;;15.36;nan;97779.59;5036823;28;20163;-81
2023/04/14 08:54:20;;;;;;;9.70;2.58;;;;;;;15.75;nan;97787.19;5036533;28;20056;-81
2023/04/14 08:57:07;;;;;;;3.42;2.58;;;;;;;15.93;nan;97785.16;5039079;28;20075;-81
2023/04/14 08:59:57;;;;;;;6.85;2.75;;;;;;;15.85;nan;97792.50;5036323;28;20090;-81
2023/04/14 09:02:42;;;;;;;7.32;3.50;;;;;;;15.69;nan;97786.34;5040219;28;20131;-81
2023/04/14 09:05:28;;;;;;;10.13;4.03;;;;;;;15.85;nan;97779.25;5038278;28;20048;-81
2023/04/14 09:08:12;;;;;;;7.40;3.58;;;;;;;15.18;nan;97786.91;5035208;28;20193;-81
2023/04/14 09:10:57;;;;;;;10.80;4.32;;;;;;;14.90;nan;97788.81;5043031;28;20071;-81
2023/04/14 09:13:43;;;;;;;10.32;4.47;;;;;;;15.13;nan;97789.50;5052315;28;20223;-80
2023/04/14 09:16:28;;;;;;;8.25;4.07;;;;;;;15.14;nan;97789.25;5041323;28;20048;-81
2023/04/14 09:19:12;;;;;;;8.35;4.15;;;;;;;15.07;nan;97793.16;5037289;28;20067;-79
2023/04/14 09:21:55;;;;;;;7.53;3.60;;;;;;;14.50;nan;97798.00;5045162;28;20098;-79
2023/04/14 09:24:40;;;;;;;10.73;4.45;;;;;;;13.71;nan;97798.22;5042450;28;20040;-79
2023/04/14 09:27:25;;;;;;;7.70;4.13;;;;;;;13.89;nan;97807.69;5042895;28;20044;-80
2023/04/14 09:30:10;;;;;;;8.02;4.28;;;;;;;14.23;nan;97809.34;5043226;28;20049;-79
2023/04/14 09:32:55;;;;;;;12.77;5.45;;;;;;;13.91;nan;97812.69;5041840;28;20172;-78
2023/04/14 09:35:45;;;;;;;12.50;5.35;;;;;;;14.16;nan;97806.13;5039719;28;20054;-79
2023/04/14 09:38:35;;;;;;;12.25;4.93;;;;;;;14.55;nan;97803.34;5046004;28;20094;-79
2023/04/14 09:41:21;;;;;;;12.55;4.20;;;;;;;14.55;nan;97806.75;5037516;28;20044;-79
2023/04/14 09:44:07;;;;;;;5.82;3.80;;;;;;;14.92;nan;97810.50;5036542;28;20162;-79
2023/04/14 09:47:05;;;;;;;9.63;4.88;;;;;;;15.17;nan;97803.81;5037011;28;20060;-81
2023/04/14 09:50:02;;;;;;;11.30;4.50;;;;;;;15.33;nan;97812.63;5046036;28;20036;-82
2023/04/14 09:52:48;;;;;;;8.75;4.13;;;;;;;15.52;nan;97804.25;5042197;28;20130;-81
2023/04/14 09:55:32;;;;;;;8.75;4.53;;;;;;;15.69;nan;97804.06;5041088;28;20044;-79
2023/04/14 09:58:20;;;;;;;10.35;4.47;;;;;;;15.65;nan;97808.28;5045410;28;20040;-80
2023/04/14 10:01:11;;;;;;;9.20;4.15;;;;;;;15.44;nan;97813.47;5036970;28;20053;-79
2023/04/14 10:03:55;;;;;;;6.63;4.10;;;;;;;15.30;nan;97820.25;5041124;28;20049;-80
2023/04/14 10:06:39;;;;;;;8.02;4.07;;;;;;;15.30;nan;97826.34;5035961;28;20513;-81
2023/04/14 10:09:26;;;;;;;6.82;4.10;;;;;;;15.15;nan;97824.41;5046354;28;20040;-80
2023/04/14 10:12:12;;;;;;;13.73;4.05;;;;;;;15.11;nan;97816.19;5054143;28;20048;-80
2023/04/14 10:14:58;;;;;;;8.43;4.18;;;;;;;15.10;nan;97824.38;5043100;28;20602;-79
2023/04/14 10:17:42;;;;;;;7.18;3.90;;;;;;;15.10;nan;97816.44;5042814;28;20086;-80
2023/04/14 10:20:27;;;;;;;12.93;3.67;;;;;;;15.19;nan;97817.56;5040980;28;20556;-80
2023/04/14 10:23:11;;;;;;;5.50;3.00;;;;;;;15.21;nan;97810.19;5022710;28;20128;-79
2023/04/14 10:25:56;;;;;;;6.53;3.30;;;;;;;15.60;nan;97821.50;5044923;28;20128;-80
2023/04/14 10:28:44;;;;;;;6.90;3.58;;;;;;;15.89;nan;97813.97;5056729;28;20068;-80
2023/04/14 10:31:35;;;;;;;4.97;2.92;;;;;;;15.66;nan;97815.97;5042952;28;20095;-79
2023/04/14 10:34:21;;;;;;;5.13;3.13;;;;;;;16.06;nan;97819.03;5043187;28;20072;-79
2023/04/14 10:37:12;;;;;;;3.55;2.55;;;;;;;16.04;nan;97823.03;5040256;28;20047;-77
2023/04/14 10:39:59;;;;;;;4.53;2.63;;;;;;;15.99;nan;97818.50;5044216;28;20052;-77
2023/04/14 10:42:51;;;;;;;6.65;2.40;;;;;;;16.10;nan;97814.03;5040950;28;20645;-78
2023/04/14 10:45:52;;;;;;;4.88;2.42;;;;;;;15.56;nan;97818.56;5045815;28;20099;-77
2023/04/14 10:48:40;;;;;;;3.05;2.10;;;;;;;15.80;nan;97812.84;5045841;28;20164;-78
2023/04/14 10:51:34;;;;;;;7.03;2.60;;;;;;;15.56;nan;97819.38;5038912;28;20498;-79
2023/04/14 10:54:18;;;;;;;4.78;2.30;;;;;;;15.11;nan;97820.66;5038832;28;20564;-79
2023/04/14 10:57:13;;;;;;;7.47;2.60;;;;;;;14.96;nan;97819.53;5043114;28;20039;-78
2023/04/14 10:59:58;;;;;;;6.57;2.60;;;;;;;14.66;nan;97825.34;5044109;28;20052;-79
2023/04/14 11:02:54;;;;;;;4.43;2.45;;;;;;;15.05;nan;97832.25;5043973;28;20048;-78
2023/04/14 11:05:43;;;;;;;8.93;2.55;;;;;;;15.14;nan;97831.53;5043536;28;20099;-79
2023/04/14 11:08:35;;;;;;;7.97;3.00;;;;;;;15.39;nan;97834.59;5041359;28;20052;-79
2023/04/14 11:11:27;;;;;;;5.60;2.50;;;;;;;15.64;nan;97838.44;5044359;28;20040;-79
2023/04/14 11:14:11;;;;;;;4.43;2.30;;;;;;;15.96;nan;97834.91;5039219;28;20122;-81
2023/04/14 11:17:03;;;;;;;4.55;2.28;;;;;;;16.21;nan;97830.72;5042255;28;20064;-79
2023/04/14 11:19:51;;;;;;;7.28;2.10;;;;;;;16.47;nan;97822.81;5037892;28;20143;-79
2023/04/14 11:22:38;;;;;;;5.53;2.28;;;;;;;16.72;nan;97835.31;5036883;28;20044;-80
2023/04/14 11:25:22;;;;;;;4.43;2.03;;;;;;;17.01;nan;97824.22;5037545;28;20099;-79
2023/04/14 11:28:06;;;;;;;7.80;2.88;;;;;;;16.96;nan;97827.63;5039898;28;20048;-79
2023/04/14 11:30:50;;;;;;;7.63;2.50;;;;;;;16.40;nan;97834.47;5034310;28;20060;-79
2023/04/14 11:33:40;;;;;;;6.97;2.25;;;;;;;16.40;nan;97834.47;5037464;28;20545;-79
2023/04/14 11:36:24;;;;;;;7.10;2.40;;;;;;;16.38;nan;97836.59;5043659;28;20507;-79
2023/04/14 11:39:09;;;;;;;5.95;2.00;;;;;;;16.39;nan;97838.19;5042866;28;20524;-78
2023/04/14 11:41:55;;;;;;;4.93;2.83;;;;;;;16.64;nan;97839.28;5044665;28;20160;-77
2023/04/14 11:44:39;;;;;;;6.05;2.60;;;;;;;16.51;nan;97835.28;5041763;28;20087;-80
2023/04/14 11:47:23;;;;;;;6.13;2.33;;;;;;;16.67;nan;97836.09;5037361;28;20074;-81
2023/04/14 11:50:09;;;;;;;6.90;2.20;;;;;;;16.81;nan;97838.22;5040088;28;20487;-81
2023/04/14 11:52:54;;;;;;;8.55;2.22;;;;;;;16.55;nan;97839.00;5046561;28;20045;-80
2023/04/14 11:55:46;;;;;;;3.95;1.70;;;;;;;16.99;nan;97837.72;5035781;28;20098;-80
2023/04/14 11:58:30;;;;;;;9.77;2.47;;;;;;;16.88;nan;97830.78;5037668;28;20036;-79
2023/04/14 12:01:22;;;;;;;6.63;1.80;;;;;;;17.23;nan;97839.81;5038411;28;20403;-82
2023/04/14 12:04:09;;;;;;;5.43;1.77;;;;;;;17.31;nan;97843.00;5033218;28;20040;-82
2023/04/14 12:06:53;;;;;;;5.68;2.20;;;;;;;17.44;nan;97845.06;5034322;28;20082;-80
2023/04/14 12:09:41;;;;;;;4.30;2.13;;;;;;;17.45;nan;97841.38;5047085;28;20540;-80
2023/04/14 12:12:27;;;;;;;6.85;2.20;;;;;;;17.66;nan;97836.00;5042685;28;20056;-80
2023/04/14 12:15:12;;;;;;;4.03;2.22;;;;;;;17.56;nan;97848.25;5039067;28;20092;-80
2023/04/14 12:17:57;;;;;;;8.70;2.55;;;;;;;17.56;nan;97847.44;5038484;28;20114;-80
2023/04/14 12:20:45;;;;;;;5.28;2.95;;;;;;;17.71;nan;97838.66;5040449;28;20172;-80
2023/04/14 12:23:33;;;;;;;5.20;2.70;;;;;;;16.85;nan;97847.22;5037492;28;20048;-80
2023/04/14 12:26:18;;;;;;;7.25;2.72;;;;;;;17.04;nan;97849.38;5039151;28;20063;-80
2023/04/14 12:29:02;;;;;;;6.05;2.83;;;;;;;17.06;nan;97860.50;5038680;28;20060;-80
2023/04/14 12:31:46;;;;;;;10.18;3.40;;;;;;;16.80;nan;97857.84;5040438;28;20570;-80
2023/04/14 12:34:30;;;;;;;5.05;3.83;;;;;;;16.45;nan;97857.53;5036464;28;20190;-80
2023/04/14 12:37:15;;;;;;;10.15;4.82;;;;;;;16.39;nan;97863.88;5039004;28;20060;-80
2023/04/14 12:40:00;;;;;;;10.73;5.07;;;;;;;16.74;nan;97869.50;5036462;28;20057;-80
2023/04/14 12:42:50;;;;;;;9.18;4.95;;;;;;;16.82;nan;97868.97;5037456;28;20044;-80
2023/04/14 12:45:46;;;;;;;7.15;5.22;;;;;;;17.05;nan;97861.56;5032075;28;20038;-81
2023/04/14 12:48:44;;;;;;;13.35;4.65;;;;;;;17.43;nan;97870.00;5037339;28;20044;-80
2023/04/14 12:51:38;;;;;;;9.25;4.75;;;;;;;17.50;nan;97869.75;5041514;28;20510;-80
2023/04/14 12:54:22;;;;;;;8.48;4.35;;;;;;;18.05;nan;97869.84;5039014;28;20055;-80
2023/04/14 12:57:06;;;;;;;8.15;3.95;;;;;;;17.78;nan;97876.31;5044131;28;20522;-79
2023/04/14 12:59:50;;;;;;;8.10;3.70;;;;;;;18.01;nan;97874.09;5040045;28;20098;-80
2023/04/14 13:02:35;;;;;;;5.53;3.20;;;;;;;18.29;nan;97877.19;5042052;28;20124;-80
2023/04/14 13:05:19;;;;;;;6.47;3.30;;;;;;;18.58;nan;97881.03;5036828;28;20403;-80
2023/04/14 13:08:03;;;;;;;7.55;3.80;;;;;;;18.74;nan;97877.16;5035428;28;20052;-80
2023/04/14 13:10:47;;;;;;;9.63;3.40;;;;;;;18.91;nan;97879.44;5044243;28;20048;-80
2023/04/14 13:13:31;;;;;;;8.02;4.13;;;;;;;19.01;nan;97872.47;5042372;28;20082;-80
2023/04/14 13:16:15;;;;;;;9.40;3.78;;;;;;;18.58;nan;97884.47;5042200;28;20106;-80
2023/04/14 13:18:59;;;;;;;5.97;3.05;;;;;;;19.14;nan;97877.16;5040065;28;20076;-80
2023/04/14 13:21:43;;;;;;;5.65;3.35;;;;;;;18.62;nan;97882.84;5037737;28;20048;-80
2023/04/14 13:24:27;;;;;;;8.23;3.80;;;;;;;19.16;nan;97880.34;5039132;28;20198;-80
2023/04/14 13:27:12;;;;;;;5.60;3.50;;;;;;;19.22;nan;97878.44;5037624;28;20128;-81